sensor_id;sensor_type;location;lat;lon;timestamp;temperature;humidity
18658;DHT22;9458;50.942;5.074;2023-04-03T00:01:56;3.30;99.90
18658;DHT22;9458;50.942;5.074;2023-04-03T00:04:33;3.20;99.90
18658;DHT22;9458;50.942;5.074;2023-04-03T00:07:02;3.20;99.90
18658;DHT22;9458;50.942;5.074;2023-04-03T00:09:34;3.20;99.90
18658;DHT22;9458;50.942;5.074;2023-04-03T00:12:14;3.20;99.90
18658;DHT22;9458;50.942;5.074;2023-04-03T00:15:02;3.20;99.90
18658;DHT22;9458;50.942;5.074;2023-04-03T00:17:36;3.10;99.90
18658;DHT22;9458;50.942;5.074;2023-04-03T00:20:06;3.10;99.90
18658;DHT22;9458;50.942;5.074;2023-04-03T00:22:41;3.10;99.90
18658;DHT22;9458;50.942;5.074;2023-04-03T00:25:14;3.10;99.90
18658;DHT22;9458;50.942;5.074;2023-04-03T00:27:44;3.10;99.90
18658;DHT22;9458;50.942;5.074;2023-04-03T00:30:15;3.10;99.90
18658;DHT22;9458;50.942;5.074;2023-04-03T00:32:44;3.00;99.90
18658;DHT22;9458;50.942;5.074;2023-04-03T00:35:13;3.00;99.90
18658;DHT22;9458;50.942;5.074;2023-04-03T00:37:43;3.00;99.90
18658;DHT22;9458;50.942;5.074;2023-04-03T00:40:15;3.00;99.90
18658;DHT22;9458;50.942;5.074;2023-04-03T00:42:46;2.90;99.90
18658;DHT22;9458;50.942;5.074;2023-04-03T00:45:25;2.90;99.90
18658;DHT22;9458;50.942;5.074;2023-04-03T00:47:54;2.90;99.90
18658;DHT22;9458;50.942;5.074;2023-04-03T00:50:23;2.90;99.90
18658;DHT22;9458;50.942;5.074;2023-04-03T00:52:53;2.90;99.90
18658;DHT22;9458;50.942;5.074;2023-04-03T00:55:23;2.90;99.90
18658;DHT22;9458;50.942;5.074;2023-04-03T00:57:53;2.90;99.90
18658;DHT22;9458;50.942;5.074;2023-04-03T01:00:23;2.90;99.90
18658;DHT22;9458;50.942;5.074;2023-04-03T01:02:56;2.90;99.90
18658;DHT22;9458;50.942;5.074;2023-04-03T01:05:24;2.80;99.90
18658;DHT22;9458;50.942;5.074;2023-04-03T01:07:54;2.80;99.90
18658;DHT22;9458;50.942;5.074;2023-04-03T01:10:26;2.80;99.90
18658;DHT22;9458;50.942;5.074;2023-04-03T01:12:55;2.90;99.90
18658;DHT22;9458;50.942;5.074;2023-04-03T01:15:26;2.80;99.90
18658;DHT22;9458;50.942;5.074;2023-04-03T01:17:58;2.80;99.90
18658;DHT22;9458;50.942;5.074;2023-04-03T01:21:06;2.70;99.90
18658;DHT22;9458;50.942;5.074;2023-04-03T01:26:39;2.60;99.90
18658;DHT22;9458;50.942;5.074;2023-04-03T01:29:09;2.60;99.90
18658;DHT22;9458;50.942;5.074;2023-04-03T01:31:51;2.60;99.90
18658;DHT22;9458;50.942;5.074;2023-04-03T01:34:26;2.50;99.90
18658;DHT22;9458;50.942;5.074;2023-04-03T01:37:03;2.50;99.90
18658;DHT22;9458;50.942;5.074;2023-04-03T01:39:41;2.50;99.90
18658;DHT22;9458;50.942;5.074;2023-04-03T01:42:09;2.50;99.90
18658;DHT22;9458;50.942;5.074;2023-04-03T01:44:38;2.50;99.90
18658;DHT22;9458;50.942;5.074;2023-04-03T01:47:07;2.40;99.90
18658;DHT22;9458;50.942;5.074;2023-04-03T01:49:35;2.50;99.90
18658;DHT22;9458;50.942;5.074;2023-04-03T01:52:03;2.50;99.90
18658;DHT22;9458;50.942;5.074;2023-04-03T01:54:35;2.40;99.90
18658;DHT22;9458;50.942;5.074;2023-04-03T01:57:04;2.40;99.90
18658;DHT22;9458;50.942;5.074;2023-04-03T01:59:32;2.30;99.90
18658;DHT22;9458;50.942;5.074;2023-04-03T02:02:00;2.30;99.90
18658;DHT22;9458;50.942;5.074;2023-04-03T02:04:33;2.20;99.90
18658;DHT22;9458;50.942;5.074;2023-04-03T02:07:03;2.20;99.90
18658;DHT22;9458;50.942;5.074;2023-04-03T02:09:32;2.20;99.90
18658;DHT22;9458;50.942;5.074;2023-04-03T02:12:05;2.20;99.90
18658;DHT22;9458;50.942;5.074;2023-04-03T02:14:43;2.10;99.90
18658;DHT22;9458;50.942;5.074;2023-04-03T02:17:20;2.10;99.90
18658;DHT22;9458;50.942;5.074;2023-04-03T02:19:59;2.10;99.90
18658;DHT22;9458;50.942;5.074;2023-04-03T02:22:34;2.10;99.90
18658;DHT22;9458;50.942;5.074;2023-04-03T02:25:05;2.00;99.90
18658;DHT22;9458;50.942;5.074;2023-04-03T02:27:34;2.00;99.90
18658;DHT22;9458;50.942;5.074;2023-04-03T02:30:04;2.00;99.90
18658;DHT22;9458;50.942;5.074;2023-04-03T02:32:33;1.90;99.90
18658;DHT22;9458;50.942;5.074;2023-04-03T02:35:08;1.90;99.90
18658;DHT22;9458;50.942;5.074;2023-04-03T02:37:39;1.90;99.90
18658;DHT22;9458;50.942;5.074;2023-04-03T02:40:10;2.00;99.90
18658;DHT22;9458;50.942;5.074;2023-04-03T02:42:39;2.00;99.90
18658;DHT22;9458;50.942;5.074;2023-04-03T02:45:08;2.00;99.90
18658;DHT22;9458;50.942;5.074;2023-04-03T02:47:35;2.00;99.90
18658;DHT22;9458;50.942;5.074;2023-04-03T02:50:03;2.00;99.90
18658;DHT22;9458;50.942;5.074;2023-04-03T02:52:34;1.90;99.90
18658;DHT22;9458;50.942;5.074;2023-04-03T02:55:02;1.80;99.90
18658;DHT22;9458;50.942;5.074;2023-04-03T02:57:31;1.80;99.90
18658;DHT22;9458;50.942;5.074;2023-04-03T03:00:00;1.80;99.90
18658;DHT22;9458;50.942;5.074;2023-04-03T03:02:34;1.80;99.90
18658;DHT22;9458;50.942;5.074;2023-04-03T03:05:05;1.80;99.90
18658;DHT22;9458;50.942;5.074;2023-04-03T03:07:37;1.80;99.90
18658;DHT22;9458;50.942;5.074;2023-04-03T03:10:06;1.90;99.90
18658;DHT22;9458;50.942;5.074;2023-04-03T03:12:35;1.90;99.90
18658;DHT22;9458;50.942;5.074;2023-04-03T03:15:03;2.00;99.90
18658;DHT22;9458;50.942;5.074;2023-04-03T03:17:33;1.90;99.90
18658;DHT22;9458;50.942;5.074;2023-04-03T03:20:02;1.90;99.90
18658;DHT22;9458;50.942;5.074;2023-04-03T03:22:31;1.90;99.90
18658;DHT22;9458;50.942;5.074;2023-04-03T03:25:00;1.90;99.90
18658;DHT22;9458;50.942;5.074;2023-04-03T03:27:30;1.90;99.90
18658;DHT22;9458;50.942;5.074;2023-04-03T03:29:59;1.80;99.90
18658;DHT22;9458;50.942;5.074;2023-04-03T03:32:26;1.90;99.90
18658;DHT22;9458;50.942;5.074;2023-04-03T03:34:54;1.80;99.90
18658;DHT22;9458;50.942;5.074;2023-04-03T03:37:22;1.80;99.90
18658;DHT22;9458;50.942;5.074;2023-04-03T03:39:50;1.80;99.90
18658;DHT22;9458;50.942;5.074;2023-04-03T03:42:20;1.80;99.90
18658;DHT22;9458;50.942;5.074;2023-04-03T03:44:48;1.80;99.90
18658;DHT22;9458;50.942;5.074;2023-04-03T03:47:17;1.80;99.90
18658;DHT22;9458;50.942;5.074;2023-04-03T03:49:45;1.80;99.90
18658;DHT22;9458;50.942;5.074;2023-04-03T03:52:13;1.80;99.90
18658;DHT22;9458;50.942;5.074;2023-04-03T03:54:41;1.80;99.90
18658;DHT22;9458;50.942;5.074;2023-04-03T03:57:09;1.80;99.90
18658;DHT22;9458;50.942;5.074;2023-04-03T03:59:39;1.70;99.90
18658;DHT22;9458;50.942;5.074;2023-04-03T04:02:08;1.70;99.90
18658;DHT22;9458;50.942;5.074;2023-04-03T04:04:36;1.70;99.90
18658;DHT22;9458;50.942;5.074;2023-04-03T04:07:04;1.70;99.90
18658;DHT22;9458;50.942;5.074;2023-04-03T04:09:32;1.70;99.90
18658;DHT22;9458;50.942;5.074;2023-04-03T04:12:00;1.70;99.90
18658;DHT22;9458;50.942;5.074;2023-04-03T04:14:28;1.60;99.90
18658;DHT22;9458;50.942;5.074;2023-04-03T04:16:57;1.60;99.90
18658;DHT22;9458;50.942;5.074;2023-04-03T04:19:25;1.60;99.90
18658;DHT22;9458;50.942;5.074;2023-04-03T04:21:53;1.60;99.90
18658;DHT22;9458;50.942;5.074;2023-04-03T04:24:22;1.60;99.90
18658;DHT22;9458;50.942;5.074;2023-04-03T04:26:49;1.60;99.90
18658;DHT22;9458;50.942;5.074;2023-04-03T04:29:18;1.50;99.90
18658;DHT22;9458;50.942;5.074;2023-04-03T04:31:46;1.40;99.90
18658;DHT22;9458;50.942;5.074;2023-04-03T04:34:16;1.40;99.90
18658;DHT22;9458;50.942;5.074;2023-04-03T04:36:45;1.30;99.90
18658;DHT22;9458;50.942;5.074;2023-04-03T04:39:13;1.40;99.90
18658;DHT22;9458;50.942;5.074;2023-04-03T04:41:41;1.50;99.90
18658;DHT22;9458;50.942;5.074;2023-04-03T04:44:09;1.40;99.90
18658;DHT22;9458;50.942;5.074;2023-04-03T04:46:37;1.30;99.90
18658;DHT22;9458;50.942;5.074;2023-04-03T04:49:05;1.20;99.90
18658;DHT22;9458;50.942;5.074;2023-04-03T04:51:34;1.20;99.90
18658;DHT22;9458;50.942;5.074;2023-04-03T04:54:02;1.10;99.90
18658;DHT22;9458;50.942;5.074;2023-04-03T04:56:32;1.30;99.90
18658;DHT22;9458;50.942;5.074;2023-04-03T04:59:01;1.30;99.90
18658;DHT22;9458;50.942;5.074;2023-04-03T05:01:28;1.40;99.90
18658;DHT22;9458;50.942;5.074;2023-04-03T05:03:56;1.40;99.90
18658;DHT22;9458;50.942;5.074;2023-04-03T05:06:25;1.40;99.90
18658;DHT22;9458;50.942;5.074;2023-04-03T05:08:54;1.40;99.90
18658;DHT22;9458;50.942;5.074;2023-04-03T05:11:22;1.40;99.90
18658;DHT22;9458;50.942;5.074;2023-04-03T05:13:52;1.30;99.90
18658;DHT22;9458;50.942;5.074;2023-04-03T05:16:25;1.20;99.90
18658;DHT22;9458;50.942;5.074;2023-04-03T05:18:52;1.20;99.90
18658;DHT22;9458;50.942;5.074;2023-04-03T05:21:21;1.20;99.90
18658;DHT22;9458;50.942;5.074;2023-04-03T05:23:51;1.40;99.90
18658;DHT22;9458;50.942;5.074;2023-04-03T05:26:20;1.50;99.90
18658;DHT22;9458;50.942;5.074;2023-04-03T05:28:49;1.60;99.90
18658;DHT22;9458;50.942;5.074;2023-04-03T05:31:17;1.60;99.90
18658;DHT22;9458;50.942;5.074;2023-04-03T05:33:45;1.70;99.90
18658;DHT22;9458;50.942;5.074;2023-04-03T05:36:14;1.80;99.90
18658;DHT22;9458;50.942;5.074;2023-04-03T05:38:42;1.80;99.90
18658;DHT22;9458;50.942;5.074;2023-04-03T05:41:12;1.90;99.90
18658;DHT22;9458;50.942;5.074;2023-04-03T05:43:42;2.00;99.90
18658;DHT22;9458;50.942;5.074;2023-04-03T05:46:11;1.90;99.90
18658;DHT22;9458;50.942;5.074;2023-04-03T05:48:40;2.10;99.90
18658;DHT22;9458;50.942;5.074;2023-04-03T05:51:14;3.40;99.90
18658;DHT22;9458;50.942;5.074;2023-04-03T05:53:44;5.50;99.90
18658;DHT22;9458;50.942;5.074;2023-04-03T05:56:13;7.10;99.90
18658;DHT22;9458;50.942;5.074;2023-04-03T05:58:43;8.30;99.90
18658;DHT22;9458;50.942;5.074;2023-04-03T06:01:12;9.50;99.90
18658;DHT22;9458;50.942;5.074;2023-04-03T06:03:44;10.20;99.90
18658;DHT22;9458;50.942;5.074;2023-04-03T06:06:17;11.40;99.90
18658;DHT22;9458;50.942;5.074;2023-04-03T06:08:48;12.10;99.90
18658;DHT22;9458;50.942;5.074;2023-04-03T06:11:16;12.80;99.90
18658;DHT22;9458;50.942;5.074;2023-04-03T06:13:49;13.20;99.90
18658;DHT22;9458;50.942;5.074;2023-04-03T06:16:17;13.20;99.90
18658;DHT22;9458;50.942;5.074;2023-04-03T06:18:47;13.70;99.90
18658;DHT22;9458;50.942;5.074;2023-04-03T06:21:16;13.80;99.90
18658;DHT22;9458;50.942;5.074;2023-04-03T06:23:44;14.30;99.90
18658;DHT22;9458;50.942;5.074;2023-04-03T06:26:13;15.00;99.90
18658;DHT22;9458;50.942;5.074;2023-04-03T06:28:42;15.80;99.90
18658;DHT22;9458;50.942;5.074;2023-04-03T06:31:11;16.40;99.90
18658;DHT22;9458;50.942;5.074;2023-04-03T06:33:39;16.50;99.90
18658;DHT22;9458;50.942;5.074;2023-04-03T06:36:09;17.10;99.90
18658;DHT22;9458;50.942;5.074;2023-04-03T06:38:38;16.70;99.90
18658;DHT22;9458;50.942;5.074;2023-04-03T06:41:06;16.60;99.90
18658;DHT22;9458;50.942;5.074;2023-04-03T06:43:37;17.40;99.90
18658;DHT22;9458;50.942;5.074;2023-04-03T06:46:06;17.40;99.90
18658;DHT22;9458;50.942;5.074;2023-04-03T06:48:36;17.50;99.90
18658;DHT22;9458;50.942;5.074;2023-04-03T06:51:04;17.40;99.90
18658;DHT22;9458;50.942;5.074;2023-04-03T06:53:33;17.60;99.90
18658;DHT22;9458;50.942;5.074;2023-04-03T06:56:01;18.70;98.70
18658;DHT22;9458;50.942;5.074;2023-04-03T06:58:28;18.80;97.40
18658;DHT22;9458;50.942;5.074;2023-04-03T07:00:56;18.60;98.10
18658;DHT22;9458;50.942;5.074;2023-04-03T07:03:28;19.20;96.60
18658;DHT22;9458;50.942;5.074;2023-04-03T07:05:58;19.00;96.50
18658;DHT22;9458;50.942;5.074;2023-04-03T07:08:27;18.60;95.90
18658;DHT22;9458;50.942;5.074;2023-04-03T07:10:55;17.60;97.30
18658;DHT22;9458;50.942;5.074;2023-04-03T07:13:22;18.40;96.90
18658;DHT22;9458;50.942;5.074;2023-04-03T07:15:51;18.00;96.90
18658;DHT22;9458;50.942;5.074;2023-04-03T07:18:20;18.90;96.50
18658;DHT22;9458;50.942;5.074;2023-04-03T07:20:48;18.70;95.00
18658;DHT22;9458;50.942;5.074;2023-04-03T07:23:18;18.90;95.30
18658;DHT22;9458;50.942;5.074;2023-04-03T07:25:48;18.90;95.30
18658;DHT22;9458;50.942;5.074;2023-04-03T07:28:18;20.20;94.00
18658;DHT22;9458;50.942;5.074;2023-04-03T07:30:49;20.80;93.60
18658;DHT22;9458;50.942;5.074;2023-04-03T07:33:18;21.60;92.10
18658;DHT22;9458;50.942;5.074;2023-04-03T07:35:46;20.30;91.20
18658;DHT22;9458;50.942;5.074;2023-04-03T07:38:14;21.70;91.90
18658;DHT22;9458;50.942;5.074;2023-04-03T07:40:47;23.20;91.40
18658;DHT22;9458;50.942;5.074;2023-04-03T07:43:17;22.30;90.00
18658;DHT22;9458;50.942;5.074;2023-04-03T07:45:48;20.50;91.00
18658;DHT22;9458;50.942;5.074;2023-04-03T07:48:18;21.30;90.80
18658;DHT22;9458;50.942;5.074;2023-04-03T07:50:46;22.30;90.40
18658;DHT22;9458;50.942;5.074;2023-04-03T07:53:14;23.30;88.90
18658;DHT22;9458;50.942;5.074;2023-04-03T07:55:46;23.60;85.50
18658;DHT22;9458;50.942;5.074;2023-04-03T07:58:16;24.70;83.50
18658;DHT22;9458;50.942;5.074;2023-04-03T08:00:45;23.80;80.70
18658;DHT22;9458;50.942;5.074;2023-04-03T08:03:14;24.10;82.50
18658;DHT22;9458;50.942;5.074;2023-04-03T08:05:47;24.10;80.20
18658;DHT22;9458;50.942;5.074;2023-04-03T08:08:18;24.80;78.50
18658;DHT22;9458;50.942;5.074;2023-04-03T08:10:50;24.30;79.50
18658;DHT22;9458;50.942;5.074;2023-04-03T08:13:20;24.70;81.90
18658;DHT22;9458;50.942;5.074;2023-04-03T08:15:48;25.80;78.30
18658;DHT22;9458;50.942;5.074;2023-04-03T08:18:18;25.80;77.40
18658;DHT22;9458;50.942;5.074;2023-04-03T08:20:52;26.60;77.40
18658;DHT22;9458;50.942;5.074;2023-04-03T08:23:22;26.80;74.90
18658;DHT22;9458;50.942;5.074;2023-04-03T08:25:52;26.90;76.80
18658;DHT22;9458;50.942;5.074;2023-04-03T08:28:20;27.10;70.70
18658;DHT22;9458;50.942;5.074;2023-04-03T08:30:48;25.40;71.00
18658;DHT22;9458;50.942;5.074;2023-04-03T08:33:17;27.20;72.30
18658;DHT22;9458;50.942;5.074;2023-04-03T08:35:46;29.40;68.90
18658;DHT22;9458;50.942;5.074;2023-04-03T08:38:13;30.00;63.40
18658;DHT22;9458;50.942;5.074;2023-04-03T08:40:42;28.30;65.30
18658;DHT22;9458;50.942;5.074;2023-04-03T08:43:27;29.70;63.50
18658;DHT22;9458;50.942;5.074;2023-04-03T08:46:02;29.50;62.50
18658;DHT22;9458;50.942;5.074;2023-04-03T08:48:35;27.20;64.20
18658;DHT22;9458;50.942;5.074;2023-04-03T08:51:12;28.10;64.70
18658;DHT22;9458;50.942;5.074;2023-04-03T08:53:45;27.70;65.60
18658;DHT22;9458;50.942;5.074;2023-04-03T08:56:18;28.10;65.40
18658;DHT22;9458;50.942;5.074;2023-04-03T08:58:51;27.30;66.30
18658;DHT22;9458;50.942;5.074;2023-04-03T09:01:24;26.50;63.50
18658;DHT22;9458;50.942;5.074;2023-04-03T09:03:54;24.90;65.80
18658;DHT22;9458;50.942;5.074;2023-04-03T09:06:26;27.70;66.00
18658;DHT22;9458;50.942;5.074;2023-04-03T09:09:06;30.30;60.00
18658;DHT22;9458;50.942;5.074;2023-04-03T09:11:44;29.10;60.90
18658;DHT22;9458;50.942;5.074;2023-04-03T09:14:24;25.90;60.70
18658;DHT22;9458;50.942;5.074;2023-04-03T09:16:55;24.90;65.90
18658;DHT22;9458;50.942;5.074;2023-04-03T09:19:34;24.60;65.00
18658;DHT22;9458;50.942;5.074;2023-04-03T09:22:16;25.40;64.20
18658;DHT22;9458;50.942;5.074;2023-04-03T09:24:46;25.80;62.50
18658;DHT22;9458;50.942;5.074;2023-04-03T09:27:15;25.60;61.70
18658;DHT22;9458;50.942;5.074;2023-04-03T09:29:45;25.20;63.70
18658;DHT22;9458;50.942;5.074;2023-04-03T09:32:21;25.50;62.70
18658;DHT22;9458;50.942;5.074;2023-04-03T09:34:50;25.70;61.50
18658;DHT22;9458;50.942;5.074;2023-04-03T09:37:39;25.00;62.30
18658;DHT22;9458;50.942;5.074;2023-04-03T09:40:33;24.70;62.40
18658;DHT22;9458;50.942;5.074;2023-04-03T09:43:26;26.00;62.80
18658;DHT22;9458;50.942;5.074;2023-04-03T09:46:16;25.80;59.80
18658;DHT22;9458;50.942;5.074;2023-04-03T09:48:51;26.70;62.40
18658;DHT22;9458;50.942;5.074;2023-04-03T09:51:18;25.10;65.60
18658;DHT22;9458;50.942;5.074;2023-04-03T09:53:47;24.70;62.40
18658;DHT22;9458;50.942;5.074;2023-04-03T09:56:24;24.70;64.20
18658;DHT22;9458;50.942;5.074;2023-04-03T09:59:08;26.20;62.90
18658;DHT22;9458;50.942;5.074;2023-04-03T10:01:57;21.40;63.40
18658;DHT22;9458;50.942;5.074;2023-04-03T10:04:38;17.70;64.80
18658;DHT22;9458;50.942;5.074;2023-04-03T10:07:30;14.20;74.80
18658;DHT22;9458;50.942;5.074;2023-04-03T10:10:18;13.50;77.90
18658;DHT22;9458;50.942;5.074;2023-04-03T10:13:04;12.10;78.10
18658;DHT22;9458;50.942;5.074;2023-04-03T10:15:36;11.30;83.00
18658;DHT22;9458;50.942;5.074;2023-04-03T10:21:50;10.10;83.10
18658;DHT22;9458;50.942;5.074;2023-04-03T10:24:25;10.00;82.60
18658;DHT22;9458;50.942;5.074;2023-04-03T10:26:58;10.00;84.30
18658;DHT22;9458;50.942;5.074;2023-04-03T10:29:49;9.90;86.50
18658;DHT22;9458;50.942;5.074;2023-04-03T10:32:31;9.80;87.10
18658;DHT22;9458;50.942;5.074;2023-04-03T10:35:11;9.90;87.30
18658;DHT22;9458;50.942;5.074;2023-04-03T10:37:52;9.80;85.80
18658;DHT22;9458;50.942;5.074;2023-04-03T10:40:29;9.60;88.00
18658;DHT22;9458;50.942;5.074;2023-04-03T10:43:06;9.30;88.10
18658;DHT22;9458;50.942;5.074;2023-04-03T10:45:56;9.30;90.20
18658;DHT22;9458;50.942;5.074;2023-04-03T10:48:35;9.30;90.40
18658;DHT22;9458;50.942;5.074;2023-04-03T10:51:15;9.20;87.00
18658;DHT22;9458;50.942;5.074;2023-04-03T10:53:56;9.30;85.10
18658;DHT22;9458;50.942;5.074;2023-04-03T10:56:31;9.30;86.20
18658;DHT22;9458;50.942;5.074;2023-04-03T10:59:13;9.40;86.40
18658;DHT22;9458;50.942;5.074;2023-04-03T11:01:46;9.30;80.10
18658;DHT22;9458;50.942;5.074;2023-04-03T11:04:17;9.20;78.70
18658;DHT22;9458;50.942;5.074;2023-04-03T11:06:51;9.30;86.40
18658;DHT22;9458;50.942;5.074;2023-04-03T11:09:27;9.30;83.60
18658;DHT22;9458;50.942;5.074;2023-04-03T11:12:02;9.10;80.60
18658;DHT22;9458;50.942;5.074;2023-04-03T11:14:32;9.30;86.40
18658;DHT22;9458;50.942;5.074;2023-04-03T11:17:24;9.30;80.60
18658;DHT22;9458;50.942;5.074;2023-04-03T11:20:01;9.10;75.20
18658;DHT22;9458;50.942;5.074;2023-04-03T11:22:36;9.20;83.60
18658;DHT22;9458;50.942;5.074;2023-04-03T11:25:19;9.10;76.90
18658;DHT22;9458;50.942;5.074;2023-04-03T11:27:55;9.00;78.10
18658;DHT22;9458;50.942;5.074;2023-04-03T11:30:27;8.90;77.20
18658;DHT22;9458;50.942;5.074;2023-04-03T11:33:11;8.70;75.60
18658;DHT22;9458;50.942;5.074;2023-04-03T11:35:44;8.80;77.70
18658;DHT22;9458;50.942;5.074;2023-04-03T11:38:19;8.80;76.40
18658;DHT22;9458;50.942;5.074;2023-04-03T11:40:53;8.90;77.80
18658;DHT22;9458;50.942;5.074;2023-04-03T11:43:25;8.80;73.50
18658;DHT22;9458;50.942;5.074;2023-04-03T11:45:56;8.80;71.30
18658;DHT22;9458;50.942;5.074;2023-04-03T11:48:49;8.90;74.00
18658;DHT22;9458;50.942;5.074;2023-04-03T11:54:36;9.00;73.70
18658;DHT22;9458;50.942;5.074;2023-04-03T11:57:44;9.00;72.80
18658;DHT22;9458;50.942;5.074;2023-04-03T12:00:52;8.80;74.30
18658;DHT22;9458;50.942;5.074;2023-04-03T12:06:54;9.10;76.20
18658;DHT22;9458;50.942;5.074;2023-04-03T12:09:30;8.90;76.10
18658;DHT22;9458;50.942;5.074;2023-04-03T12:12:01;8.80;80.50
18658;DHT22;9458;50.942;5.074;2023-04-03T12:14:49;9.00;85.00
18658;DHT22;9458;50.942;5.074;2023-04-03T12:17:26;9.00;77.90
18658;DHT22;9458;50.942;5.074;2023-04-03T12:19:56;9.10;78.30
18658;DHT22;9458;50.942;5.074;2023-04-03T12:22:24;9.10;78.10
18658;DHT22;9458;50.942;5.074;2023-04-03T12:24:57;9.00;77.60
18658;DHT22;9458;50.942;5.074;2023-04-03T12:27:33;9.00;79.90
18658;DHT22;9458;50.942;5.074;2023-04-03T12:30:23;9.20;77.10
18658;DHT22;9458;50.942;5.074;2023-04-03T12:33:04;9.10;75.40
18658;DHT22;9458;50.942;5.074;2023-04-03T12:35:44;9.20;72.50
18658;DHT22;9458;50.942;5.074;2023-04-03T12:41:19;9.20;79.00
18658;DHT22;9458;50.942;5.074;2023-04-03T12:44:06;9.10;80.40
18658;DHT22;9458;50.942;5.074;2023-04-03T12:46:43;9.30;80.20
18658;DHT22;9458;50.942;5.074;2023-04-03T12:49:35;9.20;77.80
18658;DHT22;9458;50.942;5.074;2023-04-03T12:52:17;9.00;75.10
18658;DHT22;9458;50.942;5.074;2023-04-03T12:54:46;8.90;77.00
18658;DHT22;9458;50.942;5.074;2023-04-03T12:57:18;9.10;79.70
18658;DHT22;9458;50.942;5.074;2023-04-03T12:59:47;9.00;74.40
18658;DHT22;9458;50.942;5.074;2023-04-03T13:02:21;9.00;77.70
18658;DHT22;9458;50.942;5.074;2023-04-03T13:04:51;9.00;78.10
18658;DHT22;9458;50.942;5.074;2023-04-03T13:07:25;9.10;79.10
18658;DHT22;9458;50.942;5.074;2023-04-03T13:09:59;9.10;79.50
18658;DHT22;9458;50.942;5.074;2023-04-03T13:12:27;9.20;79.10
18658;DHT22;9458;50.942;5.074;2023-04-03T13:14:58;9.20;78.20
18658;DHT22;9458;50.942;5.074;2023-04-03T13:17:29;9.20;79.30
18658;DHT22;9458;50.942;5.074;2023-04-03T13:20:13;9.30;82.20
18658;DHT22;9458;50.942;5.074;2023-04-03T13:22:48;9.30;77.30
18658;DHT22;9458;50.942;5.074;2023-04-03T13:25:18;9.10;76.90
18658;DHT22;9458;50.942;5.074;2023-04-03T13:27:47;9.00;78.90
18658;DHT22;9458;50.942;5.074;2023-04-03T13:30:29;9.00;78.90
18658;DHT22;9458;50.942;5.074;2023-04-03T13:33:02;9.00;77.90
18658;DHT22;9458;50.942;5.074;2023-04-03T13:35:34;9.10;80.90
18658;DHT22;9458;50.942;5.074;2023-04-03T13:38:06;9.20;81.20
18658;DHT22;9458;50.942;5.074;2023-04-03T13:40:47;9.30;85.70
18658;DHT22;9458;50.942;5.074;2023-04-03T13:43:20;9.40;85.10
18658;DHT22;9458;50.942;5.074;2023-04-03T13:45:58;9.40;80.00
18658;DHT22;9458;50.942;5.074;2023-04-03T13:48:35;9.30;80.70
18658;DHT22;9458;50.942;5.074;2023-04-03T13:51:16;9.30;82.00
18658;DHT22;9458;50.942;5.074;2023-04-03T13:53:47;9.20;80.60
18658;DHT22;9458;50.942;5.074;2023-04-03T13:56:21;9.30;80.20
18658;DHT22;9458;50.942;5.074;2023-04-03T13:58:57;9.40;85.80
18658;DHT22;9458;50.942;5.074;2023-04-03T14:01:25;9.30;78.20
18658;DHT22;9458;50.942;5.074;2023-04-03T14:04:13;9.20;81.70
18658;DHT22;9458;50.942;5.074;2023-04-03T14:06:41;9.30;84.90
18658;DHT22;9458;50.942;5.074;2023-04-03T14:09:09;9.40;88.50
18658;DHT22;9458;50.942;5.074;2023-04-03T14:11:40;9.40;81.50
18658;DHT22;9458;50.942;5.074;2023-04-03T14:14:14;9.50;83.40
18658;DHT22;9458;50.942;5.074;2023-04-03T14:16:45;9.30;85.30
18658;DHT22;9458;50.942;5.074;2023-04-03T14:19:34;9.30;84.50
18658;DHT22;9458;50.942;5.074;2023-04-03T14:22:13;9.40;81.10
18658;DHT22;9458;50.942;5.074;2023-04-03T14:24:41;9.40;80.40
18658;DHT22;9458;50.942;5.074;2023-04-03T14:27:16;9.40;84.20
18658;DHT22;9458;50.942;5.074;2023-04-03T14:29:45;9.40;81.30
18658;DHT22;9458;50.942;5.074;2023-04-03T14:32:14;9.50;86.00
18658;DHT22;9458;50.942;5.074;2023-04-03T14:34:44;9.50;82.40
18658;DHT22;9458;50.942;5.074;2023-04-03T14:37:14;9.50;82.40
18658;DHT22;9458;50.942;5.074;2023-04-03T14:39:45;9.50;82.90
18658;DHT22;9458;50.942;5.074;2023-04-03T14:42:14;9.50;84.40
18658;DHT22;9458;50.942;5.074;2023-04-03T14:44:44;9.50;86.00
18658;DHT22;9458;50.942;5.074;2023-04-03T14:47:12;9.50;85.20
18658;DHT22;9458;50.942;5.074;2023-04-03T14:49:45;9.40;82.90
18658;DHT22;9458;50.942;5.074;2023-04-03T14:52:19;9.30;85.70
18658;DHT22;9458;50.942;5.074;2023-04-03T14:54:48;9.30;83.30
18658;DHT22;9458;50.942;5.074;2023-04-03T14:57:17;9.40;86.60
18658;DHT22;9458;50.942;5.074;2023-04-03T14:59:45;9.40;85.30
18658;DHT22;9458;50.942;5.074;2023-04-03T15:02:25;9.40;86.00
18658;DHT22;9458;50.942;5.074;2023-04-03T15:04:57;9.50;87.90
18658;DHT22;9458;50.942;5.074;2023-04-03T15:07:29;9.50;89.10
18658;DHT22;9458;50.942;5.074;2023-04-03T15:09:58;9.60;89.10
18658;DHT22;9458;50.942;5.074;2023-04-03T15:12:27;9.60;86.50
18658;DHT22;9458;50.942;5.074;2023-04-03T15:14:56;9.60;89.10
18658;DHT22;9458;50.942;5.074;2023-04-03T15:17:24;9.40;83.00
18658;DHT22;9458;50.942;5.074;2023-04-03T15:19:53;9.40;85.00
18658;DHT22;9458;50.942;5.074;2023-04-03T15:22:22;9.30;86.40
18658;DHT22;9458;50.942;5.074;2023-04-03T15:24:50;9.30;83.30
18658;DHT22;9458;50.942;5.074;2023-04-03T15:27:19;9.40;86.40
18658;DHT22;9458;50.942;5.074;2023-04-03T15:29:48;9.30;86.20
18658;DHT22;9458;50.942;5.074;2023-04-03T15:32:20;9.40;90.60
18658;DHT22;9458;50.942;5.074;2023-04-03T15:34:51;9.50;90.00
18658;DHT22;9458;50.942;5.074;2023-04-03T15:37:19;9.40;85.20
18658;DHT22;9458;50.942;5.074;2023-04-03T15:39:49;9.40;85.20
18658;DHT22;9458;50.942;5.074;2023-04-03T15:42:16;9.20;83.90
18658;DHT22;9458;50.942;5.074;2023-04-03T15:44:45;9.20;86.40
18658;DHT22;9458;50.942;5.074;2023-04-03T15:47:14;9.30;88.40
18658;DHT22;9458;50.942;5.074;2023-04-03T15:49:43;9.30;86.80
18658;DHT22;9458;50.942;5.074;2023-04-03T15:52:11;9.30;87.10
18658;DHT22;9458;50.942;5.074;2023-04-03T15:54:39;9.30;86.10
18658;DHT22;9458;50.942;5.074;2023-04-03T15:57:08;9.30;88.80
18658;DHT22;9458;50.942;5.074;2023-04-03T15:59:37;9.20;84.60
18658;DHT22;9458;50.942;5.074;2023-04-03T16:02:07;9.20;85.50
18658;DHT22;9458;50.942;5.074;2023-04-03T16:04:35;9.20;87.10
18658;DHT22;9458;50.942;5.074;2023-04-03T16:07:04;9.10;83.50
18658;DHT22;9458;50.942;5.074;2023-04-03T16:09:33;9.10;84.90
18658;DHT22;9458;50.942;5.074;2023-04-03T16:12:02;9.10;86.70
18658;DHT22;9458;50.942;5.074;2023-04-03T16:14:32;9.10;86.00
18658;DHT22;9458;50.942;5.074;2023-04-03T16:17:00;9.10;85.90
18658;DHT22;9458;50.942;5.074;2023-04-03T16:19:29;9.10;86.40
18658;DHT22;9458;50.942;5.074;2023-04-03T16:21:57;9.10;88.70
18658;DHT22;9458;50.942;5.074;2023-04-03T16:24:25;9.00;88.10
18658;DHT22;9458;50.942;5.074;2023-04-03T16:26:53;9.00;87.20
18658;DHT22;9458;50.942;5.074;2023-04-03T16:29:21;8.90;88.10
18658;DHT22;9458;50.942;5.074;2023-04-03T16:31:53;8.90;87.10
18658;DHT22;9458;50.942;5.074;2023-04-03T16:34:23;8.90;88.60
18658;DHT22;9458;50.942;5.074;2023-04-03T16:36:52;8.80;86.60
18658;DHT22;9458;50.942;5.074;2023-04-03T16:39:20;8.80;85.40
18658;DHT22;9458;50.942;5.074;2023-04-03T16:41:47;8.80;85.90
18658;DHT22;9458;50.942;5.074;2023-04-03T16:44:15;8.80;88.10
18658;DHT22;9458;50.942;5.074;2023-04-03T16:46:43;8.80;87.90